sensor_id;sensor_type;location;lat;lon;timestamp;pressure;altitude;pressure_sealevel;temperature;humidity
74868;BME280;63419;42.262;12.210;2023-09-12T00:02:24;97462.94;;;20.84;100.00
74868;BME280;63419;42.262;12.210;2023-09-12T00:04:50;97459.97;;;20.96;100.00
74868;BME280;63419;42.262;12.210;2023-09-12T00:07:16;97458.66;;;21.08;100.00
74868;BME280;63419;42.262;12.210;2023-09-12T00:09:42;97450.75;;;21.33;100.00
74868;BME280;63419;42.262;12.210;2023-09-12T00:12:08;97460.97;;;20.70;100.00
74868;BME280;63419;42.262;12.210;2023-09-12T00:14:35;97452.28;;;21.02;100.00
74868;BME280;63419;42.262;12.210;2023-09-12T00:17:01;97449.00;;;21.00;100.00
74868;BME280;63419;42.262;12.210;2023-09-12T00:19:26;97445.88;;;20.64;100.00
74868;BME280;63419;42.262;12.210;2023-09-12T00:21:52;97455.75;;;19.08;100.00
74868;BME280;63419;42.262;12.210;2023-09-12T00:24:18;97450.19;;;20.06;100.00
74868;BME280;63419;42.262;12.210;2023-09-12T00:26:44;97461.00;;;19.08;100.00
74868;BME280;63419;42.262;12.210;2023-09-12T00:29:10;97456.00;;;19.23;100.00
74868;BME280;63419;42.262;12.210;2023-09-12T00:31:36;97448.63;;;19.78;100.00
74868;BME280;63419;42.262;12.210;2023-09-12T00:34:02;97455.50;;;19.19;100.00
74868;BME280;63419;42.262;12.210;2023-09-12T00:36:28;97453.69;;;19.80;100.00
74868;BME280;63419;42.262;12.210;2023-09-12T00:38:54;97449.91;;;20.17;100.00
74868;BME280;63419;42.262;12.210;2023-09-12T00:41:19;97448.28;;;20.16;100.00
74868;BME280;63419;42.262;12.210;2023-09-12T00:43:45;97446.81;;;20.22;100.00
74868;BME280;63419;42.262;12.210;2023-09-12T00:46:18;97450.91;;;20.32;100.00
74868;BME280;63419;42.262;12.210;2023-09-12T00:48:46;97440.31;;;20.67;100.00
74868;BME280;63419;42.262;12.210;2023-09-12T00:51:15;97436.72;;;20.84;100.00
74868;BME280;63419;42.262;12.210;2023-09-12T00:53:42;97439.16;;;20.69;100.00
74868;BME280;63419;42.262;12.210;2023-09-12T00:56:08;97439.00;;;21.04;100.00
74868;BME280;63419;42.262;12.210;2023-09-12T00:58:33;97429.63;;;21.09;100.00
74868;BME280;63419;42.262;12.210;2023-09-12T01:00:59;97429.47;;;21.11;100.00
74868;BME280;63419;42.262;12.210;2023-09-12T01:03:26;97423.59;;;21.09;100.00
74868;BME280;63419;42.262;12.210;2023-09-12T01:05:53;97421.31;;;20.81;100.00
74868;BME280;63419;42.262;12.210;2023-09-12T01:08:19;97408.69;;;20.85;100.00
74868;BME280;63419;42.262;12.210;2023-09-12T01:10:49;97404.38;;;21.17;100.00
74868;BME280;63419;42.262;12.210;2023-09-12T01:13:16;97397.13;;;21.27;100.00
74868;BME280;63419;42.262;12.210;2023-09-12T01:15:42;97412.03;;;21.26;100.00
74868;BME280;63419;42.262;12.210;2023-09-12T01:18:09;97419.66;;;20.97;100.00
74868;BME280;63419;42.262;12.210;2023-09-12T01:20:40;97416.63;;;21.24;100.00
74868;BME280;63419;42.262;12.210;2023-09-12T01:26:28;97420.88;;;21.34;100.00
74868;BME280;63419;42.262;12.210;2023-09-12T01:28:57;97425.69;;;21.14;100.00
74868;BME280;63419;42.262;12.210;2023-09-12T01:31:25;97426.69;;;20.96;100.00
74868;BME280;63419;42.262;12.210;2023-09-12T01:33:56;97418.97;;;21.03;100.00
74868;BME280;63419;42.262;12.210;2023-09-12T01:36:23;97413.13;;;20.76;100.00
74868;BME280;63419;42.262;12.210;2023-09-12T01:38:49;97420.81;;;20.86;100.00
74868;BME280;63419;42.262;12.210;2023-09-12T01:41:15;97426.22;;;20.84;100.00
74868;BME280;63419;42.262;12.210;2023-09-12T01:43:42;97420.44;;;21.14;100.00
74868;BME280;63419;42.262;12.210;2023-09-12T01:46:09;97421.88;;;21.24;100.00
74868;BME280;63419;42.262;12.210;2023-09-12T01:48:36;97421.22;;;21.30;100.00
74868;BME280;63419;42.262;12.210;2023-09-12T01:51:05;97421.75;;;21.18;100.00
74868;BME280;63419;42.262;12.210;2023-09-12T01:53:33;97418.94;;;21.27;100.00
74868;BME280;63419;42.262;12.210;2023-09-12T01:56:00;97430.44;;;21.18;100.00
74868;BME280;63419;42.262;12.210;2023-09-12T01:58:26;97417.59;;;21.32;100.00
74868;BME280;63419;42.262;12.210;2023-09-12T02:00:52;97417.59;;;21.32;100.00
74868;BME280;63419;42.262;12.210;2023-09-12T02:03:18;97412.84;;;21.35;100.00
74868;BME280;63419;42.262;12.210;2023-09-12T02:05:44;97417.91;;;21.37;100.00
74868;BME280;63419;42.262;12.210;2023-09-12T02:08:10;97424.81;;;21.46;100.00
74868;BME280;63419;42.262;12.210;2023-09-12T02:10:36;97426.50;;;21.22;100.00
74868;BME280;63419;42.262;12.210;2023-09-12T02:13:02;97414.56;;;20.87;100.00
74868;BME280;63419;42.262;12.210;2023-09-12T02:15:27;97415.41;;;20.87;100.00
74868;BME280;63419;42.262;12.210;2023-09-12T02:17:53;97424.09;;;20.88;100.00
74868;BME280;63419;42.262;12.210;2023-09-12T02:20:19;97424.88;;;20.47;100.00
74868;BME280;63419;42.262;12.210;2023-09-12T02:22:46;97418.31;;;20.35;100.00
74868;BME280;63419;42.262;12.210;2023-09-12T02:25:12;97424.28;;;20.70;100.00
74868;BME280;63419;42.262;12.210;2023-09-12T02:27:37;97432.81;;;19.01;100.00
74868;BME280;63419;42.262;12.210;2023-09-12T02:30:04;97436.66;;;18.71;100.00
74868;BME280;63419;42.262;12.210;2023-09-12T02:32:30;97437.34;;;17.64;100.00
74868;BME280;63419;42.262;12.210;2023-09-12T02:34:56;97437.25;;;19.01;100.00
74868;BME280;63419;42.262;12.210;2023-09-12T02:37:23;97443.91;;;18.95;100.00
74868;BME280;63419;42.262;12.210;2023-09-12T02:39:49;97439.06;;;19.69;100.00
74868;BME280;63419;42.262;12.210;2023-09-12T02:42:14;97439.16;;;19.51;100.00
74868;BME280;63419;42.262;12.210;2023-09-12T02:44:40;97433.44;;;19.90;100.00
74868;BME280;63419;42.262;12.210;2023-09-12T02:47:06;97430.53;;;20.02;100.00
74868;BME280;63419;42.262;12.210;2023-09-12T02:49:32;97436.00;;;20.33;100.00
74868;BME280;63419;42.262;12.210;2023-09-12T02:51:58;97431.75;;;20.57;100.00
74868;BME280;63419;42.262;12.210;2023-09-12T02:54:24;97430.16;;;20.97;100.00
74868;BME280;63419;42.262;12.210;2023-09-12T02:56:50;97434.88;;;21.18;100.00
74868;BME280;63419;42.262;12.210;2023-09-12T02:59:15;97420.53;;;21.37;100.00
74868;BME280;63419;42.262;12.210;2023-09-12T03:01:41;97430.47;;;20.94;100.00
74868;BME280;63419;42.262;12.210;2023-09-12T03:04:07;97431.78;;;20.81;100.00
74868;BME280;63419;42.262;12.210;2023-09-12T03:06:33;97428.97;;;21.16;100.00
74868;BME280;63419;42.262;12.210;2023-09-12T03:08:59;97424.09;;;20.88;100.00
74868;BME280;63419;42.262;12.210;2023-09-12T03:11:27;97414.06;;;21.16;100.00
74868;BME280;63419;42.262;12.210;2023-09-12T03:13:53;97415.97;;;21.30;100.00
74868;BME280;63419;42.262;12.210;2023-09-12T03:16:19;97420.63;;;21.04;100.00
74868;BME280;63419;42.262;12.210;2023-09-12T03:18:45;97423.25;;;20.96;100.00
74868;BME280;63419;42.262;12.210;2023-09-12T03:21:11;97417.19;;;20.87;100.00
74868;BME280;63419;42.262;12.210;2023-09-12T03:23:36;97420.56;;;20.05;100.00
74868;BME280;63419;42.262;12.210;2023-09-12T03:26:04;97423.22;;;20.30;100.00
74868;BME280;63419;42.262;12.210;2023-09-12T03:28:30;97424.81;;;20.06;100.00
74868;BME280;63419;42.262;12.210;2023-09-12T03:31:13;97420.34;;;19.82;100.00
74868;BME280;63419;42.262;12.210;2023-09-12T03:33:41;97420.66;;;19.87;100.00
74868;BME280;63419;42.262;12.210;2023-09-12T03:36:08;97412.66;;;19.81;100.00
74868;BME280;63419;42.262;12.210;2023-09-12T03:38:35;97425.34;;;19.33;100.00
74868;BME280;63419;42.262;12.210;2023-09-12T03:41:01;97420.31;;;18.87;100.00
74868;BME280;63419;42.262;12.210;2023-09-12T03:43:27;97429.97;;;18.51;100.00
74868;BME280;63419;42.262;12.210;2023-09-12T03:45:54;97427.75;;;19.26;100.00
74868;BME280;63419;42.262;12.210;2023-09-12T03:48:19;97427.97;;;19.33;100.00
74868;BME280;63419;42.262;12.210;2023-09-12T03:50:45;97433.56;;;19.46;100.00
74868;BME280;63419;42.262;12.210;2023-09-12T03:53:14;97435.97;;;19.31;100.00
74868;BME280;63419;42.262;12.210;2023-09-12T03:55:40;97435.66;;;19.34;100.00
74868;BME280;63419;42.262;12.210;2023-09-12T03:58:06;97436.28;;;18.66;100.00
74868;BME280;63419;42.262;12.210;2023-09-12T04:00:32;97437.41;;;18.99;100.00
74868;BME280;63419;42.262;12.210;2023-09-12T04:02:58;97435.44;;;19.28;100.00
74868;BME280;63419;42.262;12.210;2023-09-12T04:05:25;97434.94;;;19.58;100.00
74868;BME280;63419;42.262;12.210;2023-09-12T04:07:51;97431.16;;;19.87;100.00
74868;BME280;63419;42.262;12.210;2023-09-12T04:10:21;97429.69;;;19.85;100.00
74868;BME280;63419;42.262;12.210;2023-09-12T04:12:47;97428.81;;;19.76;100.00
74868;BME280;63419;42.262;12.210;2023-09-12T04:15:12;97427.63;;;20.13;100.00
74868;BME280;63419;42.262;12.210;2023-09-12T04:17:38;97441.69;;;19.09;100.00
74868;BME280;63419;42.262;12.210;2023-09-12T04:20:05;97442.09;;;18.78;100.00
74868;BME280;63419;42.262;12.210;2023-09-12T04:22:32;97447.06;;;18.27;100.00
74868;BME280;63419;42.262;12.210;2023-09-12T04:24:58;97446.19;;;18.36;100.00
74868;BME280;63419;42.262;12.210;2023-09-12T04:27:24;97444.31;;;19.09;100.00
74868;BME280;63419;42.262;12.210;2023-09-12T04:29:50;97452.53;;;19.14;100.00
74868;BME280;63419;42.262;12.210;2023-09-12T04:32:16;97456.22;;;17.58;100.00
74868;BME280;63419;42.262;12.210;2023-09-12T04:34:49;97453.78;;;18.65;100.00
74868;BME280;63419;42.262;12.210;2023-09-12T04:37:15;97456.59;;;18.72;100.00
74868;BME280;63419;42.262;12.210;2023-09-12T04:39:41;97453.72;;;18.93;100.00
74868;BME280;63419;42.262;12.210;2023-09-12T04:42:07;97461.28;;;19.05;100.00
74868;BME280;63419;42.262;12.210;2023-09-12T04:44:38;97460.66;;;18.67;100.00
74868;BME280;63419;42.262;12.210;2023-09-12T04:47:04;97474.41;;;17.77;100.00
74868;BME280;63419;42.262;12.210;2023-09-12T04:49:30;97470.72;;;17.70;100.00
74868;BME280;63419;42.262;12.210;2023-09-12T04:51:56;97468.84;;;18.54;100.00
74868;BME280;63419;42.262;12.210;2023-09-12T04:54:22;97467.38;;;18.51;100.00
74868;BME280;63419;42.262;12.210;2023-09-12T04:56:48;97464.09;;;18.49;100.00
74868;BME280;63419;42.262;12.210;2023-09-12T04:59:14;97460.66;;;18.67;100.00
74868;BME280;63419;42.262;12.210;2023-09-12T05:01:40;97464.97;;;18.76;100.00
74868;BME280;63419;42.262;12.210;2023-09-12T05:04:06;97456.94;;;19.13;100.00
74868;BME280;63419;42.262;12.210;2023-09-12T05:06:32;97459.00;;;19.28;100.00
74868;BME280;63419;42.262;12.210;2023-09-12T05:08:58;97459.13;;;19.26;100.00
74868;BME280;63419;42.262;12.210;2023-09-12T05:11:24;97461.66;;;19.36;100.00
74868;BME280;63419;42.262;12.210;2023-09-12T05:13:51;97457.53;;;19.07;100.00
74868;BME280;63419;42.262;12.210;2023-09-12T05:16:17;97466.38;;;19.06;100.00
74868;BME280;63419;42.262;12.210;2023-09-12T05:18:43;97458.56;;;19.40;100.00
74868;BME280;63419;42.262;12.210;2023-09-12T05:21:11;97468.19;;;19.66;100.00
74868;BME280;63419;42.262;12.210;2023-09-12T05:23:37;97462.75;;;19.86;100.00
74868;BME280;63419;42.262;12.210;2023-09-12T05:26:03;97477.16;;;19.90;100.00
74868;BME280;63419;42.262;12.210;2023-09-12T05:28:29;97475.41;;;19.72;100.00
74868;BME280;63419;42.262;12.210;2023-09-12T05:30:55;97471.59;;;19.93;100.00
74868;BME280;63419;42.262;12.210;2023-09-12T05:33:21;97469.03;;;20.09;100.00
74868;BME280;63419;42.262;12.210;2023-09-12T05:35:47;97463.84;;;20.26;100.00
74868;BME280;63419;42.262;12.210;2023-09-12T05:38:12;97469.41;;;20.39;100.00
74868;BME280;63419;42.262;12.210;2023-09-12T05:40:38;97458.34;;;20.62;100.00
74868;BME280;63419;42.262;12.210;2023-09-12T05:43:04;97454.91;;;21.02;100.00
74868;BME280;63419;42.262;12.210;2023-09-12T05:45:30;97467.00;;;20.54;100.00
74868;BME280;63419;42.262;12.210;2023-09-12T05:47:59;97456.66;;;20.36;100.00
74868;BME280;63419;42.262;12.210;2023-09-12T05:50:25;97455.38;;;21.06;100.00
74868;BME280;63419;42.262;12.210;2023-09-12T05:52:51;97455.34;;;21.22;100.00
74868;BME280;63419;42.262;12.210;2023-09-12T05:55:17;97457.63;;;21.34;100.00
74868;BME280;63419;42.262;12.210;2023-09-12T05:57:46;97460.16;;;21.10;100.00
74868;BME280;63419;42.262;12.210;2023-09-12T06:00:13;97475.03;;;20.61;100.00
74868;BME280;63419;42.262;12.210;2023-09-12T06:02:41;97468.16;;;21.01;100.00
74868;BME280;63419;42.262;12.210;2023-09-12T06:05:08;97476.31;;;21.39;100.00
74868;BME280;63419;42.262;12.210;2023-09-12T06:07:35;97489.84;;;20.19;100.00
74868;BME280;63419;42.262;12.210;2023-09-12T06:10:01;97489.81;;;21.03;100.00
74868;BME280;63419;42.262;12.210;2023-09-12T06:12:27;97487.13;;;21.44;100.00
74868;BME280;63419;42.262;12.210;2023-09-12T06:14:53;97471.75;;;21.89;100.00
74868;BME280;63419;42.262;12.210;2023-09-12T06:17:21;97481.59;;;21.95;100.00
74868;BME280;63419;42.262;12.210;2023-09-12T06:19:48;97476.31;;;22.34;100.00
74868;BME280;63419;42.262;12.210;2023-09-12T06:22:17;97481.91;;;22.54;100.00
74868;BME280;63419;42.262;12.210;2023-09-12T06:24:44;97479.63;;;22.51;100.00
74868;BME280;63419;42.262;12.210;2023-09-12T06:27:10;97479.13;;;22.56;100.00
74868;BME280;63419;42.262;12.210;2023-09-12T06:29:39;97481.72;;;22.64;100.00
74868;BME280;63419;42.262;12.210;2023-09-12T06:32:05;97485.44;;;22.93;100.00
74868;BME280;63419;42.262;12.210;2023-09-12T06:34:31;97475.09;;;23.29;100.00
74868;BME280;63419;42.262;12.210;2023-09-12T06:36:56;97485.47;;;22.85;100.00
74868;BME280;63419;42.262;12.210;2023-09-12T06:39:22;97480.63;;;23.19;100.00
74868;BME280;63419;42.262;12.210;2023-09-12T06:41:50;97475.88;;;23.15;100.00
74868;BME280;63419;42.262;12.210;2023-09-12T06:44:15;97486.25;;;22.70;100.00
74868;BME280;63419;42.262;12.210;2023-09-12T06:46:41;97485.16;;;23.03;100.00
74868;BME280;63419;42.262;12.210;2023-09-12T06:49:07;97482.97;;;23.29;100.00
74868;BME280;63419;42.262;12.210;2023-09-12T06:51:33;97488.72;;;22.72;100.00
74868;BME280;63419;42.262;12.210;2023-09-12T06:53:59;97486.59;;;22.67;100.00
74868;BME280;63419;42.262;12.210;2023-09-12T06:56:25;97493.34;;;22.38;100.00
74868;BME280;63419;42.262;12.210;2023-09-12T06:58:51;97496.41;;;22.50;100.00
74868;BME280;63419;42.262;12.210;2023-09-12T07:01:18;97497.88;;;22.76;100.00
74868;BME280;63419;42.262;12.210;2023-09-12T07:03:44;97502.56;;;22.42;100.00
74868;BME280;63419;42.262;12.210;2023-09-12T07:06:10;97513.66;;;22.13;100.00
74868;BME280;63419;42.262;12.210;2023-09-12T07:08:36;97509.69;;;22.57;100.00
74868;BME280;63419;42.262;12.210;2023-09-12T07:11:04;97516.19;;;22.69;100.00
74868;BME280;63419;42.262;12.210;2023-09-12T07:13:32;97510.06;;;23.53;100.00
74868;BME280;63419;42.262;12.210;2023-09-12T07:15:59;97506.97;;;23.49;100.00
74868;BME280;63419;42.262;12.210;2023-09-12T07:18:25;97509.16;;;23.61;100.00
74868;BME280;63419;42.262;12.210;2023-09-12T07:21:03;97513.75;;;23.82;100.00
74868;BME280;63419;42.262;12.210;2023-09-12T07:23:30;97514.81;;;23.87;100.00
74868;BME280;63419;42.262;12.210;2023-09-12T07:25:57;97513.69;;;23.67;100.00
74868;BME280;63419;42.262;12.210;2023-09-12T07:28:24;97509.88;;;24.14;100.00
74868;BME280;63419;42.262;12.210;2023-09-12T07:30:50;97512.13;;;24.32;100.00
74868;BME280;63419;42.262;12.210;2023-09-12T07:33:16;97504.84;;;24.92;100.00
74868;BME280;63419;42.262;12.210;2023-09-12T07:35:42;97522.03;;;24.30;100.00
74868;BME280;63419;42.262;12.210;2023-09-12T07:38:08;97527.94;;;23.72;100.00
74868;BME280;63419;42.262;12.210;2023-09-12T07:40:34;97521.94;;;24.23;100.00
74868;BME280;63419;42.262;12.210;2023-09-12T07:43:00;97528.78;;;24.03;100.00
74868;BME280;63419;42.262;12.210;2023-09-12T07:45:26;97530.97;;;24.14;100.00
74868;BME280;63419;42.262;12.210;2023-09-12T07:47:52;97541.72;;;23.98;100.00
74868;BME280;63419;42.262;12.210;2023-09-12T07:50:18;97539.72;;;24.00;100.00
74868;BME280;63419;42.262;12.210;2023-09-12T07:52:44;97536.75;;;24.76;100.00
74868;BME280;63419;42.262;12.210;2023-09-12T07:55:10;97545.16;;;24.64;100.00
74868;BME280;63419;42.262;12.210;2023-09-12T07:57:36;97533.50;;;25.45;100.00
74868;BME280;63419;42.262;12.210;2023-09-12T08:00:04;97530.13;;;25.93;100.00
74868;BME280;63419;42.262;12.210;2023-09-12T08:02:36;97538.25;;;25.56;100.00
74868;BME280;63419;42.262;12.210;2023-09-12T08:05:02;97541.53;;;24.87;100.00
74868;BME280;63419;42.262;12.210;2023-09-12T08:07:28;97543.63;;;25.20;100.00
74868;BME280;63419;42.262;12.210;2023-09-12T08:09:58;97521.28;;;26.07;100.00
74868;BME280;63419;42.262;12.210;2023-09-12T08:12:26;97526.53;;;25.94;100.00
74868;BME280;63419;42.262;12.210;2023-09-12T08:14:53;97514.19;;;27.09;100.00
74868;BME280;63419;42.262;12.210;2023-09-12T08:17:19;97528.44;;;25.78;100.00
74868;BME280;63419;42.262;12.210;2023-09-12T08:19:45;97526.09;;;26.52;100.00
74868;BME280;63419;42.262;12.210;2023-09-12T08:22:12;97525.88;;;26.33;100.00
74868;BME280;63419;42.262;12.210;2023-09-12T08:24:39;97519.69;;;26.94;100.00
74868;BME280;63419;42.262;12.210;2023-09-12T08:27:06;97521.91;;;26.64;100.00
74868;BME280;63419;42.262;12.210;2023-09-12T08:29:33;97520.47;;;26.62;100.00
74868;BME280;63419;42.262;12.210;2023-09-12T08:32:00;97520.78;;;26.45;100.00
74868;BME280;63419;42.262;12.210;2023-09-12T08:34:26;97513.91;;;26.57;100.00
74868;BME280;63419;42.262;12.210;2023-09-12T08:36:52;97523.03;;;26.35;100.00
74868;BME280;63419;42.262;12.210;2023-09-12T08:39:25;97505.25;;;27.37;100.00
74868;BME280;63419;42.262;12.210;2023-09-12T08:41:52;97529.69;;;26.24;100.00
74868;BME280;63419;42.262;12.210;2023-09-12T08:44:20;97502.31;;;27.79;100.00
74868;BME280;63419;42.262;12.210;2023-09-12T08:46:47;97505.81;;;27.66;100.00
74868;BME280;63419;42.262;12.210;2023-09-12T08:49:13;97514.19;;;27.09;100.00
74868;BME280;63419;42.262;12.210;2023-09-12T08:51:40;97513.78;;;26.72;100.00
74868;BME280;63419;42.262;12.210;2023-09-12T08:54:07;97520.13;;;26.85;100.00
74868;BME280;63419;42.262;12.210;2023-09-12T08:56:36;97510.97;;;27.01;100.00
74868;BME280;63419;42.262;12.210;2023-09-12T08:59:04;97501.34;;;28.25;100.00
74868;BME280;63419;42.262;12.210;2023-09-12T09:01:31;97503.94;;;27.86;100.00
74868;BME280;63419;42.262;12.210;2023-09-12T09:03:58;97494.72;;;28.47;100.00
74868;BME280;63419;42.262;12.210;2023-09-12T09:06:25;97486.78;;;28.79;100.00
74868;BME280;63419;42.262;12.210;2023-09-12T09:08:52;97479.06;;;29.65;100.00
74868;BME280;63419;42.262;12.210;2023-09-12T09:11:18;97506.28;;;28.66;100.00
74868;BME280;63419;42.262;12.210;2023-09-12T09:13:44;97498.81;;;29.07;100.00
74868;BME280;63419;42.262;12.210;2023-09-12T09:16:17;97510.28;;;28.30;100.00
74868;BME280;63419;42.262;12.210;2023-09-12T09:19:01;97500.97;;;29.42;100.00
74868;BME280;63419;42.262;12.210;2023-09-12T09:21:32;97495.84;;;29.66;100.00
74868;BME280;63419;42.262;12.210;2023-09-12T09:24:07;97496.56;;;29.73;100.00
74868;BME280;63419;42.262;12.210;2023-09-12T09:26:50;97476.78;;;31.08;100.00
74868;BME280;63419;42.262;12.210;2023-09-12T09:29:21;97477.00;;;31.19;100.00
74868;BME280;63419;42.262;12.210;2023-09-12T09:31:50;97516.13;;;28.53;100.00
74868;BME280;63419;42.262;12.210;2023-09-12T09:34:21;97521.34;;;28.98;100.00
74868;BME280;63419;42.262;12.210;2023-09-12T09:36:53;97503.50;;;28.80;100.00
74868;BME280;63419;42.262;12.210;2023-09-12T09:39:24;97508.44;;;28.76;100.00
74868;BME280;63419;42.262;12.210;2023-09-12T09:41:56;97494.09;;;29.78;100.00
74868;BME280;63419;42.262;12.210;2023-09-12T09:44:25;97495.56;;;29.74;100.00
74868;BME280;63419;42.262;12.210;2023-09-12T09:46:57;97482.84;;;30.73;100.00
74868;BME280;63419;42.262;12.210;2023-09-12T09:49:25;97485.34;;;30.56;100.00
74868;BME280;63419;42.262;12.210;2023-09-12T09:51:55;97481.34;;;30.78;100.00
74868;BME280;63419;42.262;12.210;2023-09-12T09:54:25;97464.72;;;31.77;100.00
74868;BME280;63419;42.262;12.210;2023-09-12T09:56:56;97464.09;;;31.86;100.00
74868;BME280;63419;42.262;12.210;2023-09-12T09:59:25;97517.53;;;28.55;100.00
74868;BME280;63419;42.262;12.210;2023-09-12T10:01:59;97523.06;;;28.08;100.00
74868;BME280;63419;42.262;12.210;2023-09-12T10:04:28;97496.88;;;29.65;100.00
74868;BME280;63419;42.262;12.210;2023-09-12T10:06:57;97488.19;;;30.25;100.00
74868;BME280;63419;42.262;12.210;2023-09-12T10:09:27;97500.44;;;29.08;100.00
74868;BME280;63419;42.262;12.210;2023-09-12T10:11:55;97483.03;;;29.81;100.00
74868;BME280;63419;42.262;12.210;2023-09-12T10:14:26;97478.53;;;30.12;100.00
74868;BME280;63419;42.262;12.210;2023-09-12T10:17:01;97506.47;;;28.65;100.00
74868;BME280;63419;42.262;12.210;2023-09-12T10:19:38;97490.34;;;29.42;100.00
74868;BME280;63419;42.262;12.210;2023-09-12T10:22:28;97488.19;;;29.76;100.00
74868;BME280;63419;42.262;12.210;2023-09-12T10:24:57;97497.19;;;29.06;100.00
74868;BME280;63419;42.262;12.210;2023-09-12T10:27:25;97451.25;;;32.12;100.00
74868;BME280;63419;42.262;12.210;2023-09-12T10:29:52;97455.00;;;31.59;100.00
74868;BME280;63419;42.262;12.210;2023-09-12T10:32:19;97459.63;;;31.04;100.00
74868;BME280;63419;42.262;12.210;2023-09-12T10:34:49;97475.94;;;30.96;100.00
74868;BME280;63419;42.262;12.210;2023-09-12T10:37:22;97497.81;;;29.77;100.00
74868;BME280;63419;42.262;12.210;2023-09-12T10:39:49;97476.09;;;30.59;100.00
74868;BME280;63419;42.262;12.210;2023-09-12T10:42:17;97431.22;;;33.62;100.00
74868;BME280;63419;42.262;12.210;2023-09-12T10:44:46;97468.75;;;31.67;100.00
74868;BME280;63419;42.262;12.210;2023-09-12T10:47:13;97458.66;;;31.81;100.00
74868;BME280;63419;42.262;12.210;2023-09-12T10:49:43;97449.06;;;32.67;100.00
74868;BME280;63419;42.262;12.210;2023-09-12T10:52:09;97453.09;;;32.40;100.00
74868;BME280;63419;42.262;12.210;2023-09-12T10:54:39;97424.25;;;34.32;100.00
74868;BME280;63419;42.262;12.210;2023-09-12T10:57:10;97412.81;;;35.65;100.00
74868;BME280;63419;42.262;12.210;2023-09-12T11:00:17;97458.34;;;32.35;100.00
74868;BME280;63419;42.262;12.210;2023-09-12T11:02:43;97478.22;;;30.81;100.00
74868;BME280;63419;42.262;12.210;2023-09-12T11:08:01;97443.97;;;33.16;100.00
74868;BME280;63419;42.262;12.210;2023-09-12T11:10:28;97466.03;;;31.27;100.00
74868;BME280;63419;42.262;12.210;2023-09-12T11:12:57;97451.66;;;32.33;100.00
74868;BME280;63419;42.262;12.210;2023-09-12T11:15:28;97424.63;;;33.48;100.00
74868;BME280;63419;42.262;12.210;2023-09-12T11:18:03;97449.63;;;32.86;100.00
74868;BME280;63419;42.262;12.210;2023-09-12T11:20:59;97459.63;;;31.52;100.00
74868;BME280;63419;42.262;12.210;2023-09-12T11:23:25;97453.47;;;31.63;100.00
74868;BME280;63419;42.262;12.210;2023-09-12T11:26:06;97445.22;;;32.17;100.00
74868;BME280;63419;42.262;12.210;2023-09-12T11:28:33;97428.00;;;33.04;100.00
74868;BME280;63419;42.262;12.210;2023-09-12T11:30:59;97423.16;;;32.84;100.00
74868;BME280;63419;42.262;12.210;2023-09-12T11:33:26;97418.47;;;32.91;100.00
74868;BME280;63419;42.262;12.210;2023-09-12T11:35:55;97439.75;;;32.23;100.00
74868;BME280;63419;42.262;12.210;2023-09-12T11:38:31;97437.63;;;32.25;100.00
74868;BME280;63419;42.262;12.210;2023-09-12T11:40:59;97452.13;;;31.48;100.00
74868;BME280;63419;42.262;12.210;2023-09-12T11:43:27;97407.63;;;34.03;100.00
74868;BME280;63419;42.262;12.210;2023-09-12T11:45:56;97428.81;;;32.71;100.00
74868;BME280;63419;42.262;12.210;2023-09-12T11:48:22;97428.16;;;32.97;100.00
74868;BME280;63419;42.262;12.210;2023-09-12T11:50:54;97409.69;;;33.74;100.00
74868;BME280;63419;42.262;12.210;2023-09-12T11:53:27;97399.44;;;34.42;100.00
74868;BME280;63419;42.262;12.210;2023-09-12T11:55:58;97420.63;;;33.50;100.00
74868;BME280;63419;42.262;12.210;2023-09-12T11:58:25;97388.03;;;34.89;100.00
74868;BME280;63419;42.262;12.210;2023-09-12T12:00:58;97408.50;;;33.43;100.00
74868;BME280;63419;42.262;12.210;2023-09-12T12:03:27;97417.56;;;32.69;100.00
74868;BME280;63419;42.262;12.210;2023-09-12T12:05:57;97420.31;;;32.57;100.00
74868;BME280;63419;42.262;12.210;2023-09-12T12:08:25;97416.75;;;32.22;100.00
74868;BME280;63419;42.262;12.210;2023-09-12T12:10:52;97383.78;;;34.02;100.00
74868;BME280;63419;42.262;12.210;2023-09-12T12:13:20;97380.88;;;34.68;100.00
74868;BME280;63419;42.262;12.210;2023-09-12T12:15:46;97394.06;;;34.37;100.00
74868;BME280;63419;42.262;12.210;2023-09-12T12:18:13;97388.88;;;34.03;100.00
74868;BME280;63419;42.262;12.210;2023-09-12T12:20:39;97373.06;;;34.99;100.00
74868;BME280;63419;42.262;12.210;2023-09-12T12:23:05;97321.72;;;38.33;100.00
74868;BME280;63419;42.262;12.210;2023-09-12T12:25:35;97360.94;;;36.23;100.00
74868;BME280;63419;42.262;12.210;2023-09-12T12:28:03;97408.03;;;33.12;100.00
74868;BME280;63419;42.262;12.210;2023-09-12T12:30:35;97400.84;;;33.12;100.00
74868;BME280;63419;42.262;12.210;2023-09-12T12:33:07;97349.09;;;36.18;100.00
74868;BME280;63419;42.262;12.210;2023-09-12T12:35:33;97349.66;;;36.46;100.00
74868;BME280;63419;42.262;12.210;2023-09-12T12:37:59;97357.41;;;36.01;100.00
74868;BME280;63419;42.262;12.210;2023-09-12T12:40:26;97387.50;;;34.01;100.00
74868;BME280;63419;42.262;12.210;2023-09-12T12:42:52;97373.44;;;35.18;100.00
74868;BME280;63419;42.262;12.210;2023-09-12T12:45:22;97315.34;;;39.30;100.00
74868;BME280;63419;42.262;12.210;2023-09-12T12:48:07;97356.63;;;36.57;100.00
74868;BME280;63419;42.262;12.210;2023-09-12T12:50:35;97354.50;;;36.70;100.00